createdAt,value
2022-08-08T00:00:54.678Z,2.70
2022-08-08T00:06:04.038Z,2.70
2022-08-08T00:12:07.498Z,2.90
2022-08-08T00:17:26.859Z,3.10
2022-08-08T00:22:49.012Z,3.50
2022-08-08T00:27:59.925Z,3.30
2022-08-08T00:33:16.723Z,2.90
2022-08-08T00:38:44.270Z,3.10
2022-08-08T00:44:35.504Z,3.40
2022-08-08T00:50:11.163Z,2.80
2022-08-08T00:55:35.779Z,3.20
2022-08-08T01:01:37.697Z,3.50
2022-08-08T01:07:55.361Z,3.50
2022-08-08T01:13:08.778Z,3.10
2022-08-08T01:19:02.586Z,3.70
2022-08-08T01:24:38.930Z,3.40
2022-08-08T01:30:03.558Z,3.80
2022-08-08T01:35:30.474Z,4.10
2022-08-08T01:41:09.875Z,4.20
2022-08-08T01:46:52.268Z,3.70
2022-08-08T01:53:54.878Z,4.20
2022-08-08T01:58:14.481Z,4.40
2022-08-08T02:03:55.090Z,4.40
2022-08-08T02:10:03.325Z,5.10
2022-08-08T02:15:41.113Z,4.90
2022-08-08T02:21:20.514Z,5.30
2022-08-08T02:27:05.763Z,4.70
2022-08-08T02:32:32.857Z,5.80
2022-08-08T02:38:30.082Z,4.30
2022-08-08T02:44:38.612Z,4.90
2022-08-08T02:50:12.568Z,4.50
2022-08-08T02:55:49.163Z,4.20
2022-08-08T03:01:47.323Z,3.70
2022-08-08T03:07:25.756Z,4.60
2022-08-08T03:15:54.562Z,4.50
2022-08-08T03:19:28.046Z,4.60
2022-08-08T03:24:32.374Z,4.30
2022-08-08T03:29:54.755Z,4.60
2022-08-08T03:35:00.999Z,5.20
2022-08-08T03:40:18.269Z,4.30
2022-08-08T03:46:03.330Z,4.90
2022-08-08T03:50:56.394Z,4.80
2022-08-08T03:56:04.439Z,3.90
2022-08-08T04:01:23.101Z,5.70
2022-08-08T04:06:36.031Z,5.40
2022-08-08T04:11:57.659Z,4.80
2022-08-08T04:17:06.846Z,4.70
2022-08-08T04:22:24.130Z,5.40
2022-08-08T04:28:01.862Z,4.90
2022-08-08T04:33:03.014Z,6.70
2022-08-08T04:38:09.547Z,5.80
2022-08-08T04:43:13.876Z,5.80
2022-08-08T04:48:22.132Z,4.60
2022-08-08T04:54:36.234Z,5.00
2022-08-08T04:58:50.888Z,5.10
2022-08-08T05:04:11.480Z,4.70
2022-08-08T05:09:21.462Z,5.50
2022-08-08T05:14:26.275Z,4.80
2022-08-08T05:20:09.787Z,4.20
2022-08-08T05:25:00.519Z,3.60
2022-08-08T05:30:06.095Z,4.90
2022-08-08T05:35:13.647Z,5.20
2022-08-08T05:40:21.577Z,5.00
2022-08-08T05:45:42.939Z,5.80
2022-08-08T05:50:58.962Z,4.90
2022-08-08T05:56:20.646Z,4.60
2022-08-08T06:01:55.470Z,4.40
2022-08-08T06:06:56.487Z,4.70
2022-08-08T06:12:05.578Z,5.50
2022-08-08T06:17:11.057Z,5.60
2022-08-08T06:22:42.065Z,5.00
2022-08-08T06:27:54.580Z,5.40
2022-08-08T06:33:02.188Z,3.90
2022-08-08T06:38:09.442Z,4.30
2022-08-08T06:43:28.826Z,4.10
2022-08-08T06:48:38.998Z,3.50
2022-08-08T06:53:50.952Z,4.10
2022-08-08T06:59:00.740Z,3.80
2022-08-08T07:04:38.778Z,2.60
2022-08-08T07:10:16.713Z,3.50
2022-08-08T07:16:04.579Z,3.20
2022-08-08T07:21:19.102Z,3.10
2022-08-08T07:26:32.983Z,2.90
2022-08-08T07:31:41.999Z,2.70
2022-08-08T07:36:50.738Z,2.20
2022-08-08T07:42:03.730Z,2.00
2022-08-08T07:47:10.743Z,2.00
2022-08-08T07:52:23.114Z,2.10
2022-08-08T07:57:59.547Z,2.00
2022-08-08T08:03:24.061Z,2.00
2022-08-08T08:09:05.657Z,2.80
2022-08-08T08:14:11.846Z,2.10
2022-08-08T08:19:23.254Z,2.60
2022-08-08T08:24:30.783Z,2.00
2022-08-08T08:29:36.919Z,2.40
2022-08-08T08:34:49.282Z,1.50
2022-08-08T08:40:01.920Z,1.60
2022-08-08T08:45:22.072Z,1.60
2022-08-08T08:50:33.910Z,2.00
2022-08-08T08:55:41.066Z,1.90
2022-08-08T09:01:09.070Z,1.60
2022-08-08T09:06:26.681Z,2.50
2022-08-08T09:11:46.921Z,2.50
2022-08-08T09:16:58.011Z,2.20
2022-08-08T09:22:07.553Z,2.10
2022-08-08T09:27:21.055Z,1.80
2022-08-08T09:33:01.350Z,2.40
2022-08-08T09:38:18.080Z,1.70
2022-08-08T09:44:04.567Z,2.00
2022-08-08T09:48:56.042Z,2.20
2022-08-08T09:54:12.894Z,1.90
2022-08-08T10:00:02.529Z,1.80
2022-08-08T10:04:53.763Z,1.70
2022-08-08T10:10:01.331Z,2.20
2022-08-08T10:15:18.063Z,2.00
2022-08-08T10:20:41.412Z,1.60
2022-08-08T10:25:57.044Z,2.00
2022-08-08T10:31:47.638Z,2.00
2022-08-08T10:36:52.626Z,2.00
2022-08-08T10:42:14.626Z,1.80
2022-08-08T10:47:21.597Z,2.10
2022-08-08T10:52:31.075Z,1.80
2022-08-08T10:57:50.245Z,2.80
2022-08-08T11:02:57.892Z,1.80
2022-08-08T11:08:37.757Z,2.20
2022-08-08T11:13:28.474Z,1.80
2022-08-08T11:18:36.876Z,1.90
2022-08-08T11:23:44.536Z,2.00
2022-08-08T11:28:51.701Z,1.90
2022-08-08T11:34:03.083Z,1.70
2022-08-08T11:39:25.407Z,1.70
2022-08-08T11:44:32.834Z,2.20
2022-08-08T11:49:38.015Z,1.80
2022-08-08T11:54:46.793Z,2.00
2022-08-08T12:00:06.012Z,2.10
2022-08-08T12:05:13.467Z,2.40
2022-08-08T12:10:22.202Z,3.00
2022-08-08T12:15:42.571Z,1.70
2022-08-08T12:20:54.155Z,1.80
2022-08-08T12:26:17.259Z,2.10
2022-08-08T12:31:39.269Z,2.50
2022-08-08T12:37:08.451Z,2.10
2022-08-08T12:42:21.028Z,2.50
2022-08-08T12:47:58.618Z,2.30
2022-08-08T12:52:55.729Z,2.30
2022-08-08T12:58:15.812Z,2.50
2022-08-08T13:03:33.352Z,2.20
2022-08-08T13:08:53.580Z,2.10
2022-08-08T13:14:15.877Z,2.00
2022-08-08T13:19:24.953Z,2.00
2022-08-08T13:24:48.929Z,2.30
2022-08-08T13:35:11.755Z,2.40
2022-08-08T13:40:32.149Z,2.40
2022-08-08T13:45:37.744Z,1.90
2022-08-08T13:50:55.139Z,2.30
2022-08-08T13:56:06.253Z,1.90
2022-08-08T14:01:19.974Z,2.10
2022-08-08T14:06:33.170Z,2.50
2022-08-08T14:11:38.533Z,2.30
2022-08-08T14:16:53.005Z,2.40
2022-08-08T14:21:59.703Z,2.30
2022-08-08T14:27:07.514Z,2.50
2022-08-08T14:32:20.280Z,2.90
2022-08-08T14:37:43.078Z,2.30
2022-08-08T14:43:01.362Z,2.90
2022-08-08T14:48:06.338Z,2.40
2022-08-08T14:53:15.753Z,2.40
2022-08-08T14:58:20.411Z,2.00
2022-08-08T15:08:54.865Z,2.40
2022-08-08T15:14:01.631Z,2.70
2022-08-08T15:19:07.918Z,2.70
2022-08-08T15:24:15.951Z,2.60
2022-08-08T15:29:22.571Z,2.60
2022-08-08T15:39:39.864Z,2.50
2022-08-08T15:44:44.222Z,2.30
2022-08-08T15:49:51.112Z,2.40
2022-08-08T15:54:55.789Z,2.40
2022-08-08T16:00:07.877Z,2.20
2022-08-08T16:05:23.939Z,2.50
2022-08-08T16:13:09.020Z,2.70
2022-08-08T16:15:58.926Z,1.90
2022-08-08T16:21:26.036Z,2.80
2022-08-08T16:26:40.061Z,2.40
2022-08-08T16:31:50.570Z,2.20
2022-08-08T16:36:55.286Z,2.30
2022-08-08T16:42:01.645Z,1.80
2022-08-08T16:47:40.229Z,2.40
2022-08-08T16:55:04.695Z,2.60
2022-08-08T17:03:25.310Z,2.70
2022-08-08T17:08:47.637Z,2.70
2022-08-08T17:14:01.611Z,2.70
2022-08-08T17:19:06.303Z,3.20
2022-08-08T17:24:21.893Z,3.00
2022-08-08T17:29:36.265Z,3.20
2022-08-08T17:35:52.438Z,3.10
2022-08-08T17:40:17.580Z,2.50
2022-08-08T17:45:24.434Z,2.70
2022-08-08T17:50:28.881Z,2.80
2022-08-08T17:56:03.788Z,2.60
2022-08-08T18:01:01.100Z,3.00
2022-08-08T18:06:06.552Z,2.90
2022-08-08T18:11:25.123Z,2.80
2022-08-08T18:16:33.927Z,2.70
2022-08-08T18:22:01.305Z,2.60
2022-08-08T18:27:06.239Z,3.20
2022-08-08T18:32:24.660Z,3.60
2022-08-08T18:37:34.094Z,3.10
2022-08-08T18:42:50.241Z,3.30
2022-08-08T18:47:55.587Z,3.20
2022-08-08T18:53:00.640Z,4.20
2022-08-08T18:58:07.447Z,2.70
2022-08-08T19:03:14.724Z,3.50
2022-08-08T19:08:25.244Z,3.20
2022-08-08T19:13:52.434Z,3.20
2022-08-08T19:19:03.603Z,3.60
2022-08-08T19:24:18.396Z,3.20
2022-08-08T19:29:35.617Z,4.20
2022-08-08T19:34:44.954Z,6.60
2022-08-08T19:39:51.049Z,4.90
2022-08-08T19:44:55.270Z,3.90
2022-08-08T19:50:12.577Z,4.10
2022-08-08T19:55:19.529Z,3.80
2022-08-08T20:06:15.281Z,3.70
2022-08-08T20:11:02.747Z,4.20
2022-08-08T20:16:07.772Z,4.20
2022-08-08T20:21:12.966Z,4.20
2022-08-08T20:26:18.705Z,4.60
2022-08-08T20:32:06.896Z,4.70
2022-08-08T20:36:57.615Z,5.60
2022-08-08T20:42:01.914Z,4.50
2022-08-08T20:47:22.985Z,3.10
2022-08-08T20:52:30.884Z,4.10
2022-08-08T20:57:35.720Z,4.70
2022-08-08T21:02:52.813Z,4.80
2022-08-08T21:08:35.161Z,5.40
2022-08-08T21:13:39.936Z,6.90
2022-08-08T21:18:45.267Z,11.50
2022-08-08T21:24:02.879Z,11.50
2022-08-08T21:29:11.983Z,15.70
2022-08-08T21:34:24.011Z,6.40
2022-08-08T21:39:54.945Z,5.60
2022-08-08T21:45:01.116Z,6.50
2022-08-08T21:50:22.641Z,7.40
2022-08-08T21:56:19.748Z,7.50
2022-08-08T22:00:55.125Z,9.80
2022-08-08T22:06:00.128Z,9.00
2022-08-08T22:12:03.040Z,8.30
2022-08-08T22:16:33.465Z,8.70
2022-08-08T22:21:37.806Z,11.10
2022-08-08T22:27:01.233Z,11.10
2022-08-08T22:32:06.776Z,8.50
2022-08-08T22:37:27.592Z,6.40
2022-08-08T22:42:36.526Z,7.50
2022-08-08T22:47:47.395Z,6.80
2022-08-08T22:54:31.734Z,6.70
2022-08-08T22:58:28.871Z,7.60
2022-08-08T23:03:53.574Z,8.20
2022-08-08T23:09:00.173Z,7.20
2022-08-08T23:14:04.931Z,6.20
2022-08-08T23:19:09.215Z,7.90
2022-08-08T23:24:13.459Z,9.80
2022-08-08T23:29:29.904Z,7.80
2022-08-08T23:34:36.070Z,8.10
2022-08-08T23:39:41.866Z,7.00
2022-08-08T23:44:53.432Z,7.60
2022-08-08T23:50:00.958Z,7.50
2022-08-08T23:55:22.358Z,8.00
